createdAt,value
2023-08-17T00:01:13.104Z,24.10
2023-08-17T00:03:39.679Z,24.00
2023-08-17T00:06:06.566Z,24.00
2023-08-17T00:08:33.047Z,23.90
2023-08-17T00:10:59.498Z,23.90
2023-08-17T00:13:25.907Z,23.80
2023-08-17T00:15:52.371Z,23.80
2023-08-17T00:18:18.872Z,23.74
2023-08-17T00:20:45.551Z,23.70
2023-08-17T00:23:12.049Z,23.70
2023-08-17T00:25:38.576Z,23.60
2023-08-17T00:28:05.661Z,23.60
2023-08-17T00:30:32.162Z,23.50
2023-08-17T00:32:58.598Z,23.50
2023-08-17T00:35:25.008Z,23.40
2023-08-17T00:37:51.426Z,23.32
2023-08-17T00:40:17.853Z,23.30
2023-08-17T00:42:44.296Z,23.30
2023-08-17T00:45:11.098Z,23.20
2023-08-17T00:47:38.272Z,23.16
2023-08-17T00:50:05.608Z,23.10
2023-08-17T00:52:34.306Z,23.10
2023-08-17T00:55:03.199Z,23.10
2023-08-17T00:57:29.656Z,23.00
2023-08-17T01:00:04.880Z,23.00
2023-08-17T01:02:28.103Z,23.00
2023-08-17T01:04:54.722Z,23.00
2023-08-17T01:07:22.051Z,23.00
2023-08-17T01:09:48.654Z,23.00
2023-08-17T01:12:25.628Z,23.00
2023-08-17T01:15:03.239Z,23.00
2023-08-17T01:17:45.143Z,22.90
2023-08-17T01:20:15.057Z,22.90
2023-08-17T01:22:43.826Z,22.90
2023-08-17T01:25:10.582Z,22.90
2023-08-17T01:27:46.056Z,22.90
2023-08-17T01:30:17.584Z,22.90
2023-08-17T01:33:03.350Z,22.90
2023-08-17T01:35:46.940Z,23.00
2023-08-17T01:38:21.004Z,23.00
2023-08-17T01:40:50.058Z,23.10
2023-08-17T01:43:18.057Z,23.10
2023-08-17T01:45:45.215Z,23.10
2023-08-17T01:48:11.921Z,23.10
2023-08-17T01:50:38.444Z,23.20
2023-08-17T01:53:05.078Z,23.20
2023-08-17T01:55:31.548Z,23.20
2023-08-17T01:57:57.980Z,23.12
2023-08-17T02:00:24.405Z,23.10
2023-08-17T02:02:50.833Z,23.10
2023-08-17T02:05:17.266Z,23.00
2023-08-17T02:07:43.723Z,22.90
2023-08-17T02:10:10.686Z,22.82
2023-08-17T02:12:37.093Z,22.76
2023-08-17T02:15:03.757Z,22.70
2023-08-17T02:17:30.409Z,22.60
2023-08-17T02:19:56.821Z,22.50
2023-08-17T02:22:23.261Z,22.40
2023-08-17T02:24:49.654Z,22.30
2023-08-17T02:27:16.112Z,22.22
2023-08-17T02:29:42.572Z,22.18
2023-08-17T02:32:09.018Z,22.10
2023-08-17T02:34:35.431Z,22.10
2023-08-17T02:39:28.129Z,22.00
2023-08-17T02:41:54.545Z,22.00
2023-08-17T02:44:22.089Z,22.00
2023-08-17T02:46:48.528Z,21.90
2023-08-17T02:49:14.959Z,21.90
2023-08-17T02:51:41.448Z,21.80
2023-08-17T02:54:08.316Z,21.80
2023-08-17T02:56:34.790Z,21.70
2023-08-17T02:59:01.215Z,21.60
2023-08-17T03:01:27.744Z,21.50
2023-08-17T03:03:54.182Z,21.48
2023-08-17T03:06:20.591Z,21.40
2023-08-17T03:08:47.021Z,21.30
2023-08-17T03:11:13.519Z,21.20
2023-08-17T03:13:40.309Z,21.18
2023-08-17T03:16:06.796Z,21.10
2023-08-17T03:18:33.244Z,21.10
2023-08-17T03:20:59.682Z,21.08
2023-08-17T03:23:26.155Z,21.10
2023-08-17T03:25:55.919Z,21.10
2023-08-17T03:28:22.522Z,21.10
2023-08-17T03:30:49.081Z,21.10
2023-08-17T03:33:15.545Z,21.10
2023-08-17T03:35:41.994Z,21.06
2023-08-17T03:38:08.395Z,21.02
2023-08-17T03:40:34.807Z,21.00
2023-08-17T03:43:01.238Z,21.00
2023-08-17T03:45:27.620Z,21.00
2023-08-17T03:47:54.506Z,21.00
2023-08-17T03:50:20.928Z,21.00
2023-08-17T03:52:47.323Z,21.00
2023-08-17T03:55:13.806Z,21.00
2023-08-17T03:57:40.296Z,21.00
2023-08-17T04:00:08.226Z,21.00
2023-08-17T04:02:34.689Z,21.00
2023-08-17T04:05:01.224Z,21.00
2023-08-17T04:07:28.087Z,21.10
2023-08-17T04:09:54.709Z,21.10
2023-08-17T04:12:21.161Z,21.10
2023-08-17T04:14:47.757Z,21.20
2023-08-17T04:17:14.273Z,21.20
2023-08-17T04:19:40.802Z,21.30
2023-08-17T04:22:07.437Z,21.30
2023-08-17T04:24:33.962Z,21.40
2023-08-17T04:27:00.945Z,21.50
2023-08-17T04:29:27.364Z,21.50
2023-08-17T04:31:54.321Z,21.60
2023-08-17T04:34:21.165Z,21.60
2023-08-17T04:36:47.690Z,21.70
2023-08-17T04:39:14.280Z,21.70
2023-08-17T04:41:40.810Z,21.80
2023-08-17T04:44:07.305Z,21.80
2023-08-17T04:46:34.023Z,21.90
2023-08-17T04:49:00.493Z,22.00
2023-08-17T04:51:26.960Z,22.02
2023-08-17T04:53:54.073Z,22.10
2023-08-17T04:56:21.776Z,22.20
2023-08-17T04:58:48.258Z,22.30
2023-08-17T05:01:15.158Z,22.36
2023-08-17T05:03:41.829Z,22.40
2023-08-17T05:06:08.501Z,22.50
2023-08-17T05:08:34.918Z,22.60
2023-08-17T05:11:01.322Z,22.68
2023-08-17T05:13:27.876Z,22.70
2023-08-17T05:15:54.809Z,22.80
2023-08-17T05:18:22.404Z,22.90
2023-08-17T05:20:49.027Z,23.08
2023-08-17T05:23:15.448Z,23.20
2023-08-17T05:25:41.840Z,23.30
2023-08-17T05:28:08.392Z,23.50
2023-08-17T05:30:34.811Z,23.60
2023-08-17T05:33:01.283Z,23.72
2023-08-17T05:35:27.736Z,23.84
2023-08-17T05:37:54.170Z,23.90
2023-08-17T05:40:20.615Z,24.00
2023-08-17T05:42:47.079Z,24.10
2023-08-17T05:45:13.686Z,24.20
2023-08-17T05:47:40.149Z,24.20
2023-08-17T05:50:07.399Z,24.26
2023-08-17T05:52:33.936Z,24.30
2023-08-17T05:55:00.514Z,24.30
2023-08-17T05:57:27.280Z,24.24
2023-08-17T05:59:54.110Z,24.20
2023-08-17T06:02:20.542Z,24.20
2023-08-17T06:04:48.930Z,24.16
2023-08-17T06:07:15.455Z,24.10
2023-08-17T06:09:42.108Z,24.10
2023-08-17T06:12:08.607Z,24.10
2023-08-17T06:14:35.320Z,24.10
2023-08-17T06:17:02.001Z,24.20
2023-08-17T06:19:28.417Z,24.30
2023-08-17T06:21:54.925Z,24.40
2023-08-17T06:24:21.662Z,24.50
2023-08-17T06:26:48.134Z,24.60
2023-08-17T06:29:14.531Z,24.80
2023-08-17T06:31:40.976Z,24.94
2023-08-17T06:34:07.454Z,25.10
2023-08-17T06:36:34.219Z,25.26
2023-08-17T06:39:01.333Z,25.40
2023-08-17T06:41:27.923Z,25.60
2023-08-17T06:43:54.330Z,25.72
2023-08-17T06:46:20.884Z,25.90
2023-08-17T06:48:47.367Z,26.00
2023-08-17T06:51:13.776Z,26.10
2023-08-17T06:53:40.425Z,26.20
2023-08-17T06:56:07.113Z,26.30
2023-08-17T06:58:33.546Z,26.40
2023-08-17T07:00:59.967Z,26.60
2023-08-17T07:03:26.431Z,26.66
2023-08-17T07:05:52.966Z,26.70
2023-08-17T07:08:19.419Z,26.78
2023-08-17T07:10:46.258Z,26.80
2023-08-17T07:13:12.745Z,26.80
2023-08-17T07:15:39.187Z,26.80
2023-08-17T07:18:05.725Z,26.80
2023-08-17T07:20:32.161Z,26.90
2023-08-17T07:22:58.982Z,26.90
2023-08-17T07:25:26.249Z,27.00
2023-08-17T07:27:52.671Z,27.00
2023-08-17T07:30:19.133Z,27.10
2023-08-17T07:32:45.570Z,27.20
2023-08-17T07:35:12.293Z,27.30
2023-08-17T07:37:38.804Z,27.40
2023-08-17T07:40:06.114Z,27.50
2023-08-17T07:42:32.778Z,27.70
2023-08-17T07:44:59.300Z,27.80
2023-08-17T07:47:26.238Z,27.88
2023-08-17T07:49:53.353Z,27.90
2023-08-17T07:52:19.874Z,28.00
2023-08-17T07:54:47.098Z,28.10
2023-08-17T07:57:13.558Z,28.28
2023-08-17T07:59:39.971Z,28.32
2023-08-17T08:02:07.015Z,28.40
2023-08-17T08:04:33.424Z,28.50
2023-08-17T08:07:00.100Z,28.50
2023-08-17T08:09:26.487Z,28.60
2023-08-17T08:11:52.923Z,28.60
2023-08-17T08:14:19.397Z,28.60
2023-08-17T08:16:45.861Z,28.52
2023-08-17T08:19:12.380Z,28.50
2023-08-17T08:21:39.180Z,28.48
2023-08-17T08:24:10.393Z,28.50
2023-08-17T08:26:40.781Z,28.52
2023-08-17T08:29:07.213Z,28.60
2023-08-17T08:31:33.671Z,28.60
2023-08-17T08:34:00.759Z,28.70
2023-08-17T08:36:27.174Z,28.70
2023-08-17T08:38:53.828Z,28.80
2023-08-17T08:41:20.802Z,28.90
2023-08-17T08:43:47.980Z,29.00
2023-08-17T08:46:19.004Z,29.10
2023-08-17T08:48:51.681Z,29.20
2023-08-17T08:51:29.076Z,29.20
2023-08-17T08:54:04.560Z,29.30
2023-08-17T08:56:39.095Z,29.40
2023-08-17T08:59:05.848Z,29.50
2023-08-17T09:01:33.602Z,29.60
2023-08-17T09:04:01.901Z,29.70
2023-08-17T09:06:30.304Z,29.80
2023-08-17T09:08:59.106Z,29.80
2023-08-17T09:11:25.598Z,29.80
2023-08-17T09:13:54.433Z,29.90
2023-08-17T09:16:23.005Z,30.00
2023-08-17T09:18:55.123Z,30.18
2023-08-17T09:21:24.472Z,30.32
2023-08-17T09:26:25.702Z,30.60
2023-08-17T09:28:55.262Z,30.60
2023-08-17T09:31:25.368Z,30.70
2023-08-17T09:33:52.726Z,30.70
2023-08-17T09:36:23.836Z,30.70
2023-08-17T09:38:52.472Z,30.60
2023-08-17T09:41:20.039Z,30.60
2023-08-17T09:43:48.146Z,30.54
2023-08-17T09:46:16.158Z,30.56
2023-08-17T09:48:46.654Z,30.60
2023-08-17T09:51:17.441Z,30.70
2023-08-17T09:53:44.055Z,30.80
2023-08-17T09:58:44.194Z,31.00
2023-08-17T10:01:12.106Z,31.00
2023-08-17T10:03:47.250Z,31.10
2023-08-17T10:06:26.748Z,31.22
2023-08-17T10:08:55.666Z,31.30
2023-08-17T10:11:24.315Z,31.40
2023-08-17T10:16:47.075Z,31.40
2023-08-17T10:19:44.506Z,31.40
2023-08-17T10:22:20.978Z,31.38
2023-08-17T10:24:48.424Z,31.30
2023-08-17T10:27:14.942Z,31.20
2023-08-17T10:29:44.340Z,31.10
2023-08-17T10:32:16.704Z,31.00
2023-08-17T10:34:44.620Z,31.00
2023-08-17T10:37:12.851Z,31.10
2023-08-17T10:39:47.394Z,31.10
2023-08-17T10:42:20.783Z,31.20
2023-08-17T10:44:50.422Z,31.20
2023-08-17T10:47:26.633Z,31.14
2023-08-17T10:50:02.700Z,31.20
2023-08-17T10:52:36.426Z,31.20
2023-08-17T10:55:06.276Z,31.20
2023-08-17T10:57:38.349Z,31.20
2023-08-17T11:00:30.783Z,31.30
2023-08-17T11:03:04.957Z,31.30
2023-08-17T11:05:54.994Z,31.20
2023-08-17T11:08:51.439Z,31.30
2023-08-17T11:11:22.554Z,31.30
2023-08-17T11:13:50.022Z,31.20
2023-08-17T11:16:20.611Z,31.26
2023-08-17T11:18:54.471Z,31.30
2023-08-17T11:21:21.495Z,31.30
2023-08-17T11:23:49.595Z,31.40
2023-08-17T11:26:20.421Z,31.50
2023-08-17T11:28:48.516Z,31.64
2023-08-17T11:31:17.008Z,31.80
2023-08-17T11:33:45.861Z,31.90
2023-08-17T11:36:12.832Z,32.00
2023-08-17T11:38:44.776Z,32.10
2023-08-17T11:43:43.634Z,32.40
2023-08-17T11:46:10.186Z,32.50
2023-08-17T11:48:38.048Z,32.52
2023-08-17T11:51:05.367Z,32.60
2023-08-17T11:53:42.402Z,32.70
2023-08-17T11:56:11.303Z,32.80
2023-08-17T11:58:46.788Z,32.80
2023-08-17T12:01:19.704Z,32.80
2023-08-17T12:03:46.986Z,32.84
2023-08-17T12:06:15.025Z,32.90
2023-08-17T12:08:49.608Z,32.90
2023-08-17T12:11:25.027Z,32.90
2023-08-17T12:13:53.278Z,33.00
2023-08-17T12:16:23.920Z,33.00
2023-08-17T12:18:54.308Z,33.00
2023-08-17T12:21:29.478Z,33.00
2023-08-17T12:23:56.180Z,33.00
2023-08-17T12:26:23.155Z,33.00
2023-08-17T12:28:50.947Z,33.00
2023-08-17T12:31:23.700Z,33.00
2023-08-17T12:33:53.463Z,32.90
2023-08-17T12:36:21.541Z,32.80
2023-08-17T12:38:49.250Z,32.70
2023-08-17T12:41:16.048Z,32.52
2023-08-17T12:43:42.486Z,32.36
2023-08-17T12:46:08.925Z,32.20
2023-08-17T12:48:36.864Z,32.00
2023-08-17T12:53:29.518Z,31.70
2023-08-17T12:55:56.587Z,31.70
2023-08-17T12:58:23.369Z,31.60
2023-08-17T13:00:54.490Z,31.60
2023-08-17T13:03:21.668Z,31.70
2023-08-17T13:05:48.230Z,31.80
2023-08-17T13:08:14.773Z,31.90
2023-08-17T13:10:41.346Z,32.00
2023-08-17T13:13:07.874Z,32.10
2023-08-17T13:15:34.775Z,32.30
2023-08-17T13:18:02.268Z,32.40
2023-08-17T13:20:28.828Z,32.56
2023-08-17T13:22:55.313Z,32.70
2023-08-17T13:25:21.840Z,32.80
2023-08-17T13:27:48.281Z,32.90
2023-08-17T13:30:14.849Z,33.00
2023-08-17T13:32:44.028Z,33.08
2023-08-17T13:35:11.518Z,33.20
2023-08-17T13:37:38.927Z,33.30
2023-08-17T13:40:06.267Z,33.50
2023-08-17T13:42:36.472Z,33.70
2023-08-17T13:45:05.424Z,33.90
2023-08-17T13:47:31.880Z,34.00
2023-08-17T13:49:59.432Z,34.00
2023-08-17T13:52:26.511Z,34.10
2023-08-17T13:54:57.415Z,34.10
2023-08-17T13:57:23.912Z,34.20
2023-08-17T13:59:50.425Z,34.20
2023-08-17T14:02:16.840Z,34.20
2023-08-17T14:04:43.294Z,34.20
2023-08-17T14:07:09.708Z,34.20
2023-08-17T14:09:36.166Z,34.18
2023-08-17T14:12:03.279Z,34.10
2023-08-17T14:14:29.776Z,34.00
2023-08-17T14:16:56.505Z,33.90
2023-08-17T14:19:23.075Z,33.90
2023-08-17T14:21:49.728Z,33.70
2023-08-17T14:24:36.681Z,33.58
2023-08-17T14:27:03.263Z,33.40
2023-08-17T14:29:29.708Z,33.40
2023-08-17T14:31:56.506Z,33.40
2023-08-17T14:34:23.955Z,33.30
2023-08-17T14:36:50.447Z,33.20
2023-08-17T14:39:17.045Z,33.12
2023-08-17T14:41:46.563Z,33.02
2023-08-17T14:44:13.230Z,32.92
2023-08-17T14:46:43.581Z,32.86
2023-08-17T14:49:10.244Z,32.70
2023-08-17T14:51:40.064Z,32.64
2023-08-17T14:54:08.961Z,32.60
2023-08-17T14:56:35.565Z,32.50
2023-08-17T14:59:03.003Z,32.42
2023-08-17T15:01:31.187Z,32.40
2023-08-17T15:03:57.687Z,32.40
2023-08-17T15:06:34.234Z,32.40
2023-08-17T15:11:33.343Z,32.32
2023-08-17T15:13:59.962Z,32.40
2023-08-17T15:16:28.306Z,32.50
2023-08-17T15:18:55.633Z,32.56
2023-08-17T15:21:22.829Z,32.60
2023-08-17T15:23:49.439Z,32.70
2023-08-17T15:26:16.004Z,32.80
2023-08-17T15:28:42.871Z,32.90
2023-08-17T15:31:14.287Z,32.80
2023-08-17T15:33:41.728Z,32.80
2023-08-17T15:36:08.570Z,32.70
2023-08-17T15:38:35.169Z,32.60
2023-08-17T15:43:55.577Z,32.50
2023-08-17T15:46:22.047Z,32.42
2023-08-17T15:49:06.743Z,32.32
2023-08-17T15:51:33.150Z,32.22
2023-08-17T15:53:59.528Z,32.16
2023-08-17T15:56:25.976Z,32.04
2023-08-17T15:58:52.561Z,31.96
2023-08-17T16:01:43.832Z,31.80
2023-08-17T16:04:10.269Z,31.70
2023-08-17T16:06:36.830Z,31.60
2023-08-17T16:11:37.984Z,31.30
2023-08-17T16:14:06.344Z,31.20
2023-08-17T16:16:34.014Z,31.10
2023-08-17T16:19:04.468Z,31.00
2023-08-17T16:21:55.661Z,30.80
2023-08-17T16:24:26.533Z,30.62
2023-08-17T16:26:53.683Z,30.50
2023-08-17T16:29:44.750Z,30.40
2023-08-17T16:32:11.280Z,30.32
2023-08-17T16:34:37.769Z,30.30
2023-08-17T16:39:56.027Z,30.20
2023-08-17T16:42:22.490Z,30.20
2023-08-17T16:44:48.883Z,30.20
2023-08-17T16:47:19.784Z,30.10
2023-08-17T16:49:56.566Z,30.00
2023-08-17T16:52:23.877Z,29.92
2023-08-17T16:54:50.291Z,29.90
2023-08-17T16:57:16.773Z,29.80
2023-08-17T17:02:30.329Z,29.70
2023-08-17T17:04:56.788Z,29.56
2023-08-17T17:07:23.256Z,29.40
2023-08-17T17:09:50.234Z,29.30
2023-08-17T17:12:42.186Z,29.16
2023-08-17T17:15:09.325Z,29.00
2023-08-17T17:17:36.101Z,28.80
2023-08-17T17:23:03.832Z,28.50
2023-08-17T17:25:30.321Z,28.30
2023-08-17T17:28:38.004Z,28.16
2023-08-17T17:31:07.406Z,28.00
2023-08-17T17:33:58.844Z,27.90
2023-08-17T17:36:25.504Z,27.80
2023-08-17T17:38:52.016Z,27.62
2023-08-17T17:41:18.500Z,27.48
2023-08-17T17:43:44.980Z,27.30
2023-08-17T17:46:11.438Z,27.20
2023-08-17T17:48:37.930Z,27.10
2023-08-17T17:53:31.585Z,26.84
2023-08-17T17:55:58.179Z,26.70
2023-08-17T17:58:24.727Z,26.62
2023-08-17T18:00:51.305Z,26.52
2023-08-17T18:03:17.921Z,26.50
2023-08-17T18:05:46.561Z,26.40
2023-08-17T18:08:13.284Z,26.30
2023-08-17T18:10:44.499Z,26.30
2023-08-17T18:13:11.070Z,26.20
2023-08-17T18:15:39.436Z,26.10
2023-08-17T18:18:07.042Z,26.06
2023-08-17T18:20:34.164Z,26.00
2023-08-17T18:23:00.667Z,25.90
2023-08-17T18:25:27.454Z,25.86
2023-08-17T18:27:53.995Z,25.80
2023-08-17T18:30:20.437Z,25.74
2023-08-17T18:32:47.005Z,25.70
2023-08-17T18:35:13.567Z,25.62
2023-08-17T18:37:41.765Z,25.60
2023-08-17T18:40:10.657Z,25.50
2023-08-17T18:42:37.157Z,25.30
2023-08-17T18:45:04.041Z,25.20
2023-08-17T18:47:30.679Z,25.00
2023-08-17T18:49:57.167Z,24.78
2023-08-17T18:52:25.121Z,24.50
2023-08-17T18:55:03.965Z,24.30
2023-08-17T18:57:33.780Z,24.20
2023-08-17T19:00:02.117Z,24.10
2023-08-17T19:02:28.814Z,24.10
2023-08-17T19:04:55.330Z,24.10
2023-08-17T19:07:23.462Z,24.10
2023-08-17T19:09:50.199Z,24.10
2023-08-17T19:12:18.501Z,24.10
2023-08-17T19:14:46.556Z,24.00
2023-08-17T19:17:13.568Z,24.00
2023-08-17T19:19:41.718Z,23.90
2023-08-17T19:22:08.644Z,23.80
2023-08-17T19:24:35.352Z,23.80
2023-08-17T19:27:01.956Z,23.72
2023-08-17T19:29:29.474Z,23.70
2023-08-17T19:31:56.129Z,23.64
2023-08-17T19:34:22.688Z,23.60
2023-08-17T19:36:49.227Z,23.56
2023-08-17T19:39:15.717Z,23.50
2023-08-17T19:41:44.437Z,23.50
2023-08-17T19:44:11.026Z,23.40
2023-08-17T19:46:37.717Z,23.30
2023-08-17T19:51:31.251Z,23.10
2023-08-17T19:53:57.773Z,23.00
2023-08-17T19:56:24.356Z,22.92
2023-08-17T19:58:50.759Z,22.90
2023-08-17T20:01:18.497Z,22.80
2023-08-17T20:03:49.516Z,22.70
2023-08-17T20:06:16.351Z,22.60
2023-08-17T20:08:43.764Z,22.50
2023-08-17T20:11:12.619Z,22.40
2023-08-17T20:13:39.261Z,22.30
2023-08-17T20:16:06.625Z,22.30
2023-08-17T20:18:33.251Z,22.26
2023-08-17T20:21:03.165Z,22.20
2023-08-17T20:23:29.622Z,22.20
2023-08-17T20:25:57.566Z,22.20
2023-08-17T20:28:24.610Z,22.10
2023-08-17T20:31:00.910Z,22.00
2023-08-17T20:33:28.057Z,22.00
2023-08-17T20:35:55.982Z,21.90
2023-08-17T20:38:24.096Z,21.90
2023-08-17T20:40:51.736Z,21.90
2023-08-17T20:43:19.288Z,21.82
2023-08-17T20:45:46.472Z,21.80
2023-08-17T20:48:13.298Z,21.80
2023-08-17T20:50:41.424Z,21.80
2023-08-17T20:53:09.055Z,21.74
2023-08-17T20:55:40.120Z,21.80
2023-08-17T20:58:07.574Z,21.80
2023-08-17T21:00:36.804Z,21.80
2023-08-17T21:05:31.345Z,21.80
2023-08-17T21:07:58.352Z,21.80
2023-08-17T21:10:25.396Z,21.80
2023-08-17T21:12:52.172Z,21.70
2023-08-17T21:15:18.715Z,21.70
2023-08-17T21:17:46.519Z,21.60
2023-08-17T21:20:13.816Z,21.52
2023-08-17T21:22:47.138Z,21.50
2023-08-17T21:25:13.637Z,21.44
2023-08-17T21:27:40.272Z,21.40
2023-08-17T21:30:07.983Z,21.40
2023-08-17T21:32:34.688Z,21.30
2023-08-17T21:35:01.220Z,21.30
2023-08-17T21:37:29.507Z,21.20
2023-08-17T21:39:56.445Z,21.20
2023-08-17T21:42:23.103Z,21.20
2023-08-17T21:44:50.842Z,21.20
2023-08-17T21:47:17.523Z,21.20
2023-08-17T21:49:47.965Z,21.16
2023-08-17T21:52:16.588Z,21.18
2023-08-17T21:54:43.186Z,21.18
2023-08-17T21:57:09.850Z,21.20
2023-08-17T21:59:36.349Z,21.20
2023-08-17T22:02:03.992Z,21.20
2023-08-17T22:04:33.438Z,21.20
2023-08-17T22:07:03.027Z,21.28
2023-08-17T22:09:30.737Z,21.30
2023-08-17T22:11:57.199Z,21.30
2023-08-17T22:14:23.746Z,21.30
2023-08-17T22:16:50.468Z,21.30
2023-08-17T22:19:17.279Z,21.30
2023-08-17T22:21:43.781Z,21.30
2023-08-17T22:24:10.230Z,21.30
2023-08-17T22:26:36.718Z,21.30
2023-08-17T22:29:04.482Z,21.30
2023-08-17T22:31:32.273Z,21.30
2023-08-17T22:33:58.685Z,21.30
2023-08-17T22:36:25.271Z,21.38
2023-08-17T22:38:51.766Z,21.30
2023-08-17T22:41:18.188Z,21.30
2023-08-17T22:43:44.854Z,21.26
2023-08-17T22:46:11.428Z,21.22
2023-08-17T22:48:38.027Z,21.20
2023-08-17T22:51:04.527Z,21.20
2023-08-17T22:53:30.924Z,21.20
2023-08-17T22:55:57.352Z,21.18
2023-08-17T22:58:23.807Z,21.18
2023-08-17T23:00:50.353Z,21.10
2023-08-17T23:03:17.397Z,21.10
2023-08-17T23:05:44.692Z,21.02
2023-08-17T23:08:11.182Z,21.00
2023-08-17T23:10:37.933Z,20.90
2023-08-17T23:13:04.727Z,20.84
2023-08-17T23:15:31.135Z,20.80
2023-08-17T23:17:57.751Z,20.66
2023-08-17T23:20:24.334Z,20.50
2023-08-17T23:22:50.746Z,20.42
2023-08-17T23:25:17.282Z,20.44
2023-08-17T23:27:47.943Z,20.42
2023-08-17T23:30:14.434Z,20.40
2023-08-17T23:32:40.852Z,20.40
2023-08-17T23:35:08.301Z,20.40
2023-08-17T23:37:34.717Z,20.40
2023-08-17T23:40:07.184Z,20.50
2023-08-17T23:42:33.696Z,20.50
2023-08-17T23:45:00.152Z,20.56
2023-08-17T23:47:26.893Z,20.60
2023-08-17T23:49:53.975Z,20.60
2023-08-17T23:52:20.408Z,20.64
2023-08-17T23:54:46.809Z,20.70
2023-08-17T23:57:13.283Z,20.80
2023-08-17T23:59:39.673Z,20.80
